createdAt,value
2018-09-21T01:35:09.483Z,45.67
2018-09-21T01:37:47.545Z,39.60
2018-09-21T01:40:26.844Z,44.90
2018-09-21T01:43:05.163Z,41.53
2018-09-21T01:45:46.368Z,42.97
2018-09-21T01:48:26.222Z,41.60
2018-09-21T01:51:05.484Z,40.70
2018-09-21T01:53:45.170Z,42.30
2018-09-21T01:56:26.542Z,43.07
2018-09-21T01:59:05.776Z,40.60
2018-09-21T02:01:44.329Z,69.87
2018-09-21T02:04:27.004Z,57.57
2018-09-21T02:07:05.922Z,42.60
2018-09-21T02:09:45.261Z,44.43
2018-09-21T02:12:23.590Z,46.30
2018-09-21T02:15:03.665Z,52.67
2018-09-21T02:17:43.037Z,45.00
2018-09-21T02:20:21.924Z,39.73
2018-09-21T02:23:01.446Z,41.93
2018-09-21T02:25:41.344Z,43.53
2018-09-21T02:28:23.421Z,40.37
2018-09-21T02:31:02.004Z,39.80
2018-09-21T02:33:39.650Z,43.50
2018-09-21T02:36:18.229Z,41.07
2018-09-21T02:38:58.991Z,47.37
2018-09-21T02:41:38.543Z,48.70
2018-09-21T02:44:18.072Z,45.57
2018-09-21T02:46:58.604Z,50.03
2018-09-21T02:49:37.503Z,50.30
2018-09-21T02:52:16.084Z,63.87
2018-09-21T02:54:55.921Z,55.47
2018-09-21T02:57:35.865Z,85.97
2018-09-21T03:00:14.891Z,84.40
2018-09-21T03:02:53.304Z,72.87
2018-09-21T03:05:31.304Z,104.47
2018-09-21T03:08:09.905Z,215.43
2018-09-21T03:10:46.622Z,258.37
2018-09-21T03:13:25.248Z,229.03
2018-09-21T03:16:04.947Z,334.53
2018-09-21T03:18:46.702Z,300.63
2018-09-21T03:21:25.500Z,434.80
2018-09-21T03:24:04.201Z,320.83
2018-09-21T03:26:42.388Z,420.90
2018-09-21T03:29:21.261Z,364.97
2018-09-21T03:31:59.288Z,519.37
2018-09-21T03:34:43.428Z,533.60
2018-09-21T03:37:22.524Z,495.10
2018-09-21T03:40:01.922Z,428.07
2018-09-21T03:42:39.319Z,512.87
2018-09-21T03:45:16.944Z,334.17
2018-09-21T03:47:58.303Z,190.23
2018-09-21T03:50:37.966Z,289.17
2018-09-21T03:53:16.545Z,341.87
2018-09-21T03:55:55.822Z,319.00
2018-09-21T03:58:33.552Z,326.37
2018-09-21T04:01:11.627Z,304.90
2018-09-21T04:03:48.863Z,291.67
2018-09-21T04:06:26.541Z,248.83
2018-09-21T04:09:03.443Z,184.50
2018-09-21T04:11:42.185Z,112.13
2018-09-21T04:14:21.882Z,187.73
2018-09-21T04:17:01.762Z,115.10
2018-09-21T04:19:41.343Z,93.73
2018-09-21T04:22:23.704Z,72.03
2018-09-21T04:25:02.201Z,165.37
2018-09-21T04:27:42.590Z,139.13
2018-09-21T04:30:22.132Z,299.40
2018-09-21T04:33:04.184Z,526.90
2018-09-21T04:35:44.422Z,322.27
2018-09-21T04:38:24.952Z,135.47
2018-09-21T04:41:02.240Z,130.53
2018-09-21T04:43:41.925Z,166.00
2018-09-21T04:46:20.965Z,128.60
2018-09-21T04:49:00.064Z,162.57
2018-09-21T04:51:38.168Z,210.67
2018-09-21T04:54:18.290Z,117.10
2018-09-21T04:56:56.482Z,149.90
2018-09-21T04:59:34.803Z,400.83
2018-09-21T05:02:15.712Z,142.33
2018-09-21T05:04:57.382Z,238.30
2018-09-21T05:07:34.743Z,369.30
2018-09-21T05:10:16.389Z,327.00
2018-09-21T05:13:00.024Z,207.37
2018-09-21T05:15:36.525Z,337.13
2018-09-21T05:18:14.988Z,381.87
2018-09-21T05:20:51.365Z,437.70
2018-09-21T05:23:31.342Z,293.60
2018-09-21T05:26:09.381Z,303.63
2018-09-21T05:28:46.280Z,310.00
2018-09-21T05:31:23.479Z,299.17
2018-09-21T05:33:59.919Z,230.23
2018-09-21T05:36:36.229Z,194.03
2018-09-21T05:39:17.288Z,499.60
2018-09-21T05:41:56.963Z,216.07
2018-09-21T05:44:39.259Z,291.73
2018-09-21T05:47:16.903Z,156.27
2018-09-21T05:49:53.682Z,87.23
2018-09-21T06:46:07.042Z,122.03
2018-09-21T06:48:45.216Z,113.10
2018-09-21T06:51:28.978Z,90.50
2018-09-21T06:54:07.578Z,284.10
2018-09-21T06:56:43.540Z,123.17
2018-09-21T06:59:22.718Z,117.00
2018-09-21T07:02:07.962Z,109.07
2018-09-21T07:04:48.316Z,494.27
2018-09-21T07:07:25.213Z,443.77
2018-09-21T07:10:08.031Z,108.77
2018-09-21T07:12:47.353Z,728.03
2018-09-21T07:15:29.822Z,560.00
2018-09-21T07:18:07.420Z,287.87
2018-09-21T07:20:47.686Z,573.13
2018-09-21T07:23:26.863Z,369.80
2018-09-21T07:26:07.255Z,255.37
2018-09-21T07:28:48.072Z,202.73
2018-09-21T07:31:25.939Z,79.23
2018-09-21T07:34:06.199Z,202.80
2018-09-21T07:36:45.220Z,112.87
2018-09-21T07:39:29.843Z,94.93
2018-09-21T07:42:08.806Z,59.90
2018-09-21T07:44:49.400Z,129.97
2018-09-21T07:47:26.164Z,113.00
2018-09-21T07:50:11.566Z,110.53
2018-09-21T07:52:55.038Z,109.33
2018-09-21T07:55:31.574Z,41.87
2018-09-21T07:58:08.598Z,34.60
2018-09-21T08:00:47.902Z,96.70
2018-09-21T08:03:34.005Z,36.57
2018-09-21T08:06:19.856Z,40.67
2018-09-21T08:08:57.127Z,53.70
2018-09-21T08:11:41.446Z,120.03
2018-09-21T08:14:21.237Z,246.77
2018-09-21T08:16:58.562Z,289.63
2018-09-21T08:19:37.357Z,104.77
2018-09-21T08:22:14.840Z,192.90
2018-09-21T08:24:52.326Z,254.43
2018-09-21T08:27:30.855Z,252.43
2018-09-21T08:30:10.481Z,157.80
2018-09-21T08:32:47.781Z,81.97
2018-09-21T08:35:25.802Z,65.00
2018-09-21T08:38:06.899Z,55.40
2018-09-21T08:40:45.299Z,61.30
2018-09-21T08:43:26.098Z,98.23
2018-09-21T08:46:04.245Z,67.93
2018-09-21T08:48:41.682Z,71.30
2018-09-21T08:51:23.715Z,68.00
2018-09-21T08:54:03.321Z,82.37
2018-09-21T08:56:43.899Z,95.63
2018-09-21T08:59:20.979Z,115.15
2018-09-21T09:01:58.427Z,114.87
2018-09-21T09:04:36.248Z,94.25
2018-09-21T09:07:13.458Z,78.60
2018-09-21T09:09:54.900Z,37.90
2018-09-21T09:12:33.582Z,31.35
2018-09-21T09:15:11.201Z,24.85
2018-09-21T09:17:48.078Z,21.77
2018-09-21T09:20:29.127Z,23.40
2018-09-21T09:23:07.801Z,24.85
2018-09-21T09:25:47.019Z,27.52
2018-09-21T09:28:24.196Z,36.53
2018-09-21T09:31:07.736Z,43.28
2018-09-21T09:33:45.417Z,41.10
2018-09-21T09:36:22.563Z,39.35
2018-09-21T09:39:00.726Z,63.25
2018-09-21T09:41:39.501Z,39.15
2018-09-21T09:44:19.728Z,45.00
2018-09-21T09:46:58.876Z,40.63
2018-09-21T09:49:38.021Z,48.52
2018-09-21T09:52:18.940Z,47.00
2018-09-21T09:54:58.945Z,62.05
2018-09-21T09:57:41.385Z,49.25
2018-09-21T10:00:23.716Z,48.95
2018-09-21T10:03:01.516Z,31.35
2018-09-21T10:05:45.782Z,39.92
2018-09-21T10:08:32.385Z,33.83
2018-09-21T10:11:13.035Z,40.17
2018-09-21T10:13:54.463Z,34.00
2018-09-21T10:16:37.085Z,29.65
2018-09-21T10:19:23.416Z,27.30
2018-09-21T10:22:04.939Z,24.07
2018-09-21T10:24:44.427Z,23.15
2018-09-21T10:27:23.752Z,21.68
2018-09-21T10:30:01.880Z,20.75
2018-09-21T10:32:40.736Z,21.00
2018-09-21T10:35:20.542Z,20.48
2018-09-21T10:38:00.380Z,19.23
2018-09-21T10:40:44.103Z,20.32
2018-09-21T10:43:25.579Z,20.45
2018-09-21T10:46:03.406Z,20.40
2018-09-21T10:48:43.419Z,21.12
2018-09-21T10:51:23.096Z,21.62
2018-09-21T10:53:59.686Z,21.15
2018-09-21T10:56:42.657Z,20.77
2018-09-21T10:59:24.019Z,20.95
2018-09-21T11:02:05.477Z,21.23
2018-09-21T11:04:43.557Z,20.92
2018-09-21T11:07:22.169Z,21.73
2018-09-21T11:10:01.500Z,22.22
2018-09-21T11:12:41.621Z,21.60
2018-09-21T11:15:26.583Z,21.80
2018-09-21T11:18:06.680Z,21.27
2018-09-21T11:20:52.122Z,20.90
2018-09-21T11:23:33.740Z,21.50
2018-09-21T11:26:16.017Z,22.73
2018-09-21T11:28:55.661Z,22.52
2018-09-21T11:31:40.516Z,22.20
2018-09-21T11:34:19.325Z,23.40
2018-09-21T11:36:59.477Z,21.62
2018-09-21T11:39:38.861Z,22.17
2018-09-21T11:42:17.861Z,24.87
2018-09-21T11:44:58.499Z,22.42
2018-09-21T11:47:35.726Z,22.67
2018-09-21T11:50:15.296Z,21.97
2018-09-21T11:52:54.535Z,22.62
2018-09-21T11:55:35.802Z,24.05
2018-09-21T11:58:15.541Z,22.35
2018-09-21T12:00:55.154Z,22.75
2018-09-21T12:03:37.840Z,22.42
2018-09-21T12:06:18.724Z,20.62
2018-09-21T12:08:57.286Z,24.05
2018-09-21T12:11:43.078Z,22.67
2018-09-21T12:14:20.407Z,21.12
2018-09-21T12:17:01.855Z,21.23
2018-09-21T12:19:43.216Z,22.77
2018-09-21T12:22:22.599Z,20.88
2018-09-21T12:24:59.983Z,21.95
2018-09-21T12:27:41.417Z,21.55
2018-09-21T12:30:29.611Z,21.25
2018-09-21T12:33:06.877Z,20.10
2018-09-21T12:35:44.164Z,22.05
2018-09-21T12:38:22.578Z,21.82
2018-09-21T12:40:59.022Z,22.90
2018-09-21T12:43:39.280Z,23.73
2018-09-21T12:46:30.135Z,21.40
2018-09-21T12:49:08.760Z,22.60
2018-09-21T12:51:50.834Z,22.90
2018-09-21T12:54:30.538Z,22.50
2018-09-21T12:57:13.319Z,23.18
2018-09-21T12:59:54.642Z,22.67
2018-09-21T13:02:37.606Z,24.72
2018-09-21T13:05:19.259Z,26.87
2018-09-21T13:08:01.738Z,27.20
2018-09-21T13:10:42.420Z,27.35
2018-09-21T13:13:24.081Z,29.07
2018-09-21T13:16:00.696Z,29.67
2018-09-21T13:18:38.362Z,31.35
2018-09-21T13:21:17.448Z,27.27
2018-09-21T13:24:16.156Z,28.73
2018-09-21T13:26:56.203Z,29.57
2018-09-21T13:29:33.804Z,31.65
2018-09-21T13:32:14.999Z,28.57
2018-09-21T13:34:54.857Z,27.65
2018-09-21T13:37:37.757Z,31.02
2018-09-21T13:40:17.293Z,31.15
2018-09-21T13:42:59.278Z,28.98
2018-09-21T13:45:37.082Z,28.85
2018-09-21T13:48:18.221Z,29.50
2018-09-21T13:51:02.835Z,25.08
2018-09-21T13:53:41.052Z,23.35
2018-09-21T13:56:20.355Z,22.87
2018-09-21T13:59:03.257Z,20.97
2018-09-21T14:01:45.599Z,19.73
2018-09-21T14:04:27.079Z,20.02
2018-09-21T14:07:12.170Z,20.27
2018-09-21T14:09:53.294Z,20.70
2018-09-21T14:12:33.117Z,20.77
2018-09-21T14:15:11.887Z,24.10
2018-09-21T14:17:49.396Z,21.45
2018-09-21T14:20:26.937Z,20.08
2018-09-21T14:23:04.277Z,19.95
2018-09-21T14:25:43.061Z,20.60
2018-09-21T14:28:23.176Z,20.32
2018-09-21T14:31:03.659Z,21.33
2018-09-21T14:33:41.919Z,22.70
2018-09-21T14:36:25.260Z,20.72
2018-09-21T14:39:06.170Z,22.05
2018-09-21T14:41:45.480Z,23.12
2018-09-21T14:44:28.402Z,24.70
2018-09-21T14:47:09.477Z,24.57
2018-09-21T14:49:47.263Z,26.77
2018-09-21T14:52:28.100Z,31.17
2018-09-21T14:55:09.177Z,36.03
2018-09-21T14:57:57.203Z,37.38
2018-09-21T15:00:40.382Z,43.55
2018-09-21T15:03:19.635Z,47.40
2018-09-21T15:06:01.346Z,50.25
2018-09-21T15:08:38.956Z,53.38
2018-09-21T15:11:18.541Z,48.23
2018-09-21T17:10:46.629Z,41.47
2018-09-21T17:13:31.814Z,72.77
2018-09-21T17:16:16.570Z,145.20
2018-09-21T17:18:57.148Z,266.43
2018-09-21T17:21:38.593Z,253.50
2018-09-21T17:24:17.430Z,275.97
2018-09-21T17:27:03.133Z,325.97
2018-09-21T17:29:46.286Z,336.33
2018-09-21T17:32:29.523Z,394.97
2018-09-21T17:35:10.376Z,526.87
2018-09-21T17:37:59.698Z,568.37
2018-09-21T17:40:39.528Z,438.87
2018-09-21T17:43:19.087Z,422.50
2018-09-21T17:45:59.552Z,510.53
2018-09-21T17:48:39.449Z,492.50
2018-09-21T17:51:20.993Z,543.37
2018-09-21T17:54:00.949Z,514.17
2018-09-21T17:56:39.412Z,448.97
2018-09-21T17:59:19.035Z,334.73
2018-09-21T18:01:57.028Z,358.07
2018-09-21T18:04:36.028Z,418.90
2018-09-21T18:07:21.965Z,480.87
2018-09-21T18:10:01.149Z,404.17
2018-09-21T18:12:42.709Z,215.97
2018-09-21T18:15:21.591Z,57.63
2018-09-21T18:18:01.934Z,222.63
2018-09-21T18:20:40.052Z,256.20
2018-09-21T18:23:19.393Z,320.97
2018-09-21T18:26:00.416Z,563.50
2018-09-21T18:28:41.227Z,210.07
2018-09-21T18:31:20.511Z,61.83
2018-09-21T18:34:03.985Z,77.50
2018-09-21T18:36:42.412Z,180.90
2018-09-21T18:39:25.322Z,360.60
2018-09-21T18:42:02.715Z,384.60
2018-09-21T18:44:42.842Z,197.90
2018-09-21T18:47:25.408Z,186.77
2018-09-21T18:50:04.791Z,383.63
2018-09-21T18:52:44.212Z,307.47
2018-09-21T18:55:22.194Z,291.50
2018-09-21T18:58:02.604Z,112.63
2018-09-21T19:03:26.677Z,40.70
2018-09-21T19:06:08.068Z,49.00
2018-09-21T19:08:49.636Z,32.07
2018-09-21T19:11:27.207Z,48.70
2018-09-21T19:14:06.487Z,165.03
2018-09-21T19:16:46.269Z,53.13
2018-09-21T19:19:26.335Z,87.40
2018-09-21T19:22:04.992Z,45.57
2018-09-21T19:24:50.954Z,35.60
2018-09-21T19:27:29.856Z,35.30
2018-09-21T19:30:13.827Z,47.70
2018-09-21T19:32:51.254Z,31.43
2018-09-21T19:35:30.446Z,92.37
2018-09-21T19:38:08.317Z,120.70
2018-09-21T19:40:50.791Z,200.73
2018-09-21T19:43:33.411Z,65.00
2018-09-21T19:46:12.590Z,130.47
2018-09-21T19:49:02.011Z,307.63
2018-09-21T19:51:45.537Z,153.97
2018-09-21T19:54:28.034Z,85.63
2018-09-21T19:57:06.451Z,51.23
2018-09-21T19:59:47.369Z,157.80
2018-09-21T20:02:25.690Z,53.27
2018-09-21T20:05:03.789Z,192.40
2018-09-21T20:07:45.433Z,300.97
2018-09-21T20:10:25.452Z,149.87
2018-09-21T20:13:09.251Z,41.70
2018-09-21T20:15:50.175Z,116.97
2018-09-21T20:18:30.571Z,153.50
2018-09-21T20:21:10.810Z,129.83
2018-09-21T20:23:53.972Z,310.57
2018-09-21T20:26:33.812Z,362.87
2018-09-21T20:29:14.035Z,364.33
2018-09-21T20:31:59.830Z,348.00
2018-09-21T20:34:39.911Z,280.57
2018-09-21T20:37:20.248Z,179.87
2018-09-21T20:40:00.085Z,106.87
2018-09-21T20:42:40.405Z,66.80
2018-09-21T20:45:19.927Z,95.77
2018-09-21T20:48:00.313Z,116.03
2018-09-21T20:50:41.750Z,42.37
2018-09-21T20:53:21.657Z,29.73
2018-09-21T20:56:06.809Z,29.60
2018-09-21T20:58:48.632Z,32.73
2018-09-21T21:01:30.353Z,32.77
2018-09-21T21:04:09.792Z,40.37
2018-09-21T21:06:48.138Z,52.30
2018-09-21T21:09:26.394Z,97.67
2018-09-21T21:12:08.546Z,101.13
2018-09-21T21:14:50.989Z,191.10
2018-09-21T21:17:32.610Z,182.37
2018-09-21T21:20:14.428Z,83.97
2018-09-21T21:22:56.366Z,86.37
2018-09-21T21:25:36.652Z,97.80
2018-09-21T21:28:17.830Z,89.33
2018-09-21T21:31:01.729Z,78.00
2018-09-21T21:33:43.110Z,90.53
2018-09-21T21:36:25.466Z,202.97
2018-09-21T21:39:06.055Z,115.80
2018-09-21T21:41:46.990Z,255.53
2018-09-21T21:44:26.630Z,260.63
2018-09-21T21:47:06.833Z,302.43
2018-09-21T21:49:46.672Z,324.60
2018-09-21T21:52:27.493Z,343.60
2018-09-21T21:55:10.309Z,338.20
2018-09-21T21:57:51.308Z,303.60
2018-09-21T22:01:34.706Z,314.20
2018-09-21T22:04:16.226Z,191.20
2018-09-21T22:06:56.150Z,204.97
2018-09-21T22:09:36.015Z,184.63
2018-09-21T22:12:22.134Z,260.10
2018-09-21T22:15:01.434Z,273.43
2018-09-21T22:17:42.431Z,306.57
2018-09-21T22:20:23.510Z,302.90
2018-09-21T22:23:04.452Z,319.73
2018-09-21T22:25:47.271Z,290.37
2018-09-21T22:28:30.309Z,311.40
2018-09-21T22:31:11.575Z,305.97
2018-09-21T22:33:50.451Z,309.07
2018-09-21T22:36:31.629Z,316.60
2018-09-21T22:39:15.431Z,312.20
2018-09-21T22:41:57.533Z,360.73
2018-09-21T22:44:37.931Z,320.53
2018-09-21T22:47:17.871Z,318.23
2018-09-21T22:49:58.228Z,336.73
2018-09-21T22:52:39.055Z,355.93
2018-09-21T22:55:17.067Z,288.43
2018-09-21T22:57:59.069Z,243.13
2018-09-21T23:00:39.027Z,318.70
2018-09-21T23:03:21.112Z,235.83
2018-09-21T23:06:02.652Z,124.37
2018-09-21T23:08:43.648Z,125.80
2018-09-21T23:11:24.529Z,61.50
2018-09-21T23:14:04.968Z,34.97
2018-09-21T23:16:46.346Z,32.17
2018-09-21T23:19:26.472Z,54.40
2018-09-21T23:22:07.796Z,98.10
2018-09-21T23:24:45.025Z,137.73
2018-09-21T23:27:26.008Z,185.23
2018-09-21T23:30:06.654Z,257.63
2018-09-21T23:32:44.489Z,261.67
2018-09-21T23:35:23.890Z,343.17
2018-09-21T23:38:04.951Z,465.37
2018-09-21T23:40:44.756Z,436.03
2018-09-21T23:43:27.249Z,443.77
2018-09-21T23:46:08.413Z,224.13
2018-09-21T23:48:49.252Z,303.80
2018-09-21T23:51:31.571Z,59.57
2018-09-21T23:54:12.851Z,20.07
2018-09-21T23:56:54.152Z,19.10
2018-09-21T23:59:37.067Z,75.07
